sensor_id;sensor_type;location;lat;lon;timestamp;temperature;humidity
35463;DHT22;21578;47.892;9.970;2022-10-31T00:04:12;12.00;96.60
35463;DHT22;21578;47.892;9.970;2022-10-31T00:09:01;11.90;96.60
35463;DHT22;21578;47.892;9.970;2022-10-31T00:13:48;11.90;96.60
35463;DHT22;21578;47.892;9.970;2022-10-31T00:18:37;11.90;96.60
35463;DHT22;21578;47.892;9.970;2022-10-31T00:23:23;11.90;96.60
35463;DHT22;21578;47.892;9.970;2022-10-31T00:28:11;11.90;96.60
35463;DHT22;21578;47.892;9.970;2022-10-31T00:32:58;11.90;96.60
35463;DHT22;21578;47.892;9.970;2022-10-31T00:37:47;12.00;96.60
35463;DHT22;21578;47.892;9.970;2022-10-31T00:42:35;12.00;96.60
35463;DHT22;21578;47.892;9.970;2022-10-31T00:47:21;12.10;96.60
35463;DHT22;21578;47.892;9.970;2022-10-31T00:52:08;12.00;96.60
35463;DHT22;21578;47.892;9.970;2022-10-31T00:56:57;12.10;96.60
35463;DHT22;21578;47.892;9.970;2022-10-31T01:01:44;12.10;96.60
35463;DHT22;21578;47.892;9.970;2022-10-31T01:06:31;12.00;96.60
35463;DHT22;21578;47.892;9.970;2022-10-31T01:11:19;12.10;96.60
35463;DHT22;21578;47.892;9.970;2022-10-31T01:16:11;12.10;96.60
35463;DHT22;21578;47.892;9.970;2022-10-31T01:21:00;12.00;96.60
35463;DHT22;21578;47.892;9.970;2022-10-31T01:25:47;12.00;96.60
35463;DHT22;21578;47.892;9.970;2022-10-31T01:30:33;12.00;96.60
35463;DHT22;21578;47.892;9.970;2022-10-31T01:35:22;11.90;96.60
35463;DHT22;21578;47.892;9.970;2022-10-31T01:40:09;11.90;96.60
35463;DHT22;21578;47.892;9.970;2022-10-31T01:44:59;11.90;96.60
35463;DHT22;21578;47.892;9.970;2022-10-31T01:49:49;12.00;96.60
35463;DHT22;21578;47.892;9.970;2022-10-31T01:54:41;11.80;96.60
35463;DHT22;21578;47.892;9.970;2022-10-31T01:59:32;11.70;96.60
35463;DHT22;21578;47.892;9.970;2022-10-31T02:04:24;11.60;96.60
35463;DHT22;21578;47.892;9.970;2022-10-31T02:09:12;11.50;96.60
35463;DHT22;21578;47.892;9.970;2022-10-31T02:14:02;11.50;96.60
35463;DHT22;21578;47.892;9.970;2022-10-31T02:18:49;11.50;96.60
35463;DHT22;21578;47.892;9.970;2022-10-31T02:24:14;11.50;96.60
35463;DHT22;21578;47.892;9.970;2022-10-31T02:34:34;11.40;96.60
35463;DHT22;21578;47.892;9.970;2022-10-31T02:39:25;11.40;96.60
35463;DHT22;21578;47.892;9.970;2022-10-31T02:44:19;11.40;96.60
35463;DHT22;21578;47.892;9.970;2022-10-31T02:49:10;11.30;96.60
35463;DHT22;21578;47.892;9.970;2022-10-31T02:54:00;11.20;96.60
35463;DHT22;21578;47.892;9.970;2022-10-31T02:58:50;11.30;96.60
35463;DHT22;21578;47.892;9.970;2022-10-31T03:03:46;11.20;96.60
35463;DHT22;21578;47.892;9.970;2022-10-31T03:08:39;11.20;96.60
35463;DHT22;21578;47.892;9.970;2022-10-31T03:13:35;11.10;96.60
35463;DHT22;21578;47.892;9.970;2022-10-31T03:18:29;11.10;96.60
35463;DHT22;21578;47.892;9.970;2022-10-31T03:23:18;11.10;96.60
35463;DHT22;21578;47.892;9.970;2022-10-31T03:28:06;11.10;96.60
35463;DHT22;21578;47.892;9.970;2022-10-31T03:32:57;11.00;96.60
35463;DHT22;21578;47.892;9.970;2022-10-31T03:37:47;11.10;96.60
35463;DHT22;21578;47.892;9.970;2022-10-31T03:42:38;11.10;96.60
35463;DHT22;21578;47.892;9.970;2022-10-31T03:47:25;11.10;96.60
35463;DHT22;21578;47.892;9.970;2022-10-31T03:52:22;11.20;96.60
35463;DHT22;21578;47.892;9.970;2022-10-31T03:57:16;11.20;96.60
35463;DHT22;21578;47.892;9.970;2022-10-31T04:02:07;11.20;96.60
35463;DHT22;21578;47.892;9.970;2022-10-31T04:06:55;11.10;96.60
35463;DHT22;21578;47.892;9.970;2022-10-31T04:11:48;11.00;96.60
35463;DHT22;21578;47.892;9.970;2022-10-31T04:16:36;10.90;96.60
35463;DHT22;21578;47.892;9.970;2022-10-31T04:21:27;10.80;96.60
35463;DHT22;21578;47.892;9.970;2022-10-31T04:26:14;10.80;96.60
35463;DHT22;21578;47.892;9.970;2022-10-31T04:31:03;10.80;96.60
35463;DHT22;21578;47.892;9.970;2022-10-31T04:35:50;10.90;96.60
35463;DHT22;21578;47.892;9.970;2022-10-31T04:40:37;10.90;96.60
35463;DHT22;21578;47.892;9.970;2022-10-31T04:45:23;10.90;96.60
35463;DHT22;21578;47.892;9.970;2022-10-31T04:50:12;11.00;96.60
35463;DHT22;21578;47.892;9.970;2022-10-31T04:54:59;10.90;96.60
35463;DHT22;21578;47.892;9.970;2022-10-31T04:59:46;10.90;96.60
35463;DHT22;21578;47.892;9.970;2022-10-31T05:04:32;10.90;96.60
35463;DHT22;21578;47.892;9.970;2022-10-31T05:09:21;10.90;96.60
35463;DHT22;21578;47.892;9.970;2022-10-31T05:14:08;10.80;96.60
35463;DHT22;21578;47.892;9.970;2022-10-31T05:18:55;10.80;96.60
35463;DHT22;21578;47.892;9.970;2022-10-31T05:23:41;10.70;96.60
35463;DHT22;21578;47.892;9.970;2022-10-31T05:28:30;10.70;96.60
35463;DHT22;21578;47.892;9.970;2022-10-31T05:33:17;10.60;96.60
35463;DHT22;21578;47.892;9.970;2022-10-31T05:38:03;10.60;96.60
35463;DHT22;21578;47.892;9.970;2022-10-31T05:42:51;10.60;96.60
35463;DHT22;21578;47.892;9.970;2022-10-31T05:47:40;10.50;96.60
35463;DHT22;21578;47.892;9.970;2022-10-31T05:52:27;10.50;96.60
35463;DHT22;21578;47.892;9.970;2022-10-31T05:57:14;10.40;96.60
35463;DHT22;21578;47.892;9.970;2022-10-31T06:02:01;10.40;96.60
35463;DHT22;21578;47.892;9.970;2022-10-31T06:06:49;10.30;96.60
35463;DHT22;21578;47.892;9.970;2022-10-31T06:11:36;10.30;96.60
35463;DHT22;21578;47.892;9.970;2022-10-31T06:16:23;10.30;96.60
35463;DHT22;21578;47.892;9.970;2022-10-31T06:21:10;10.30;96.60
35463;DHT22;21578;47.892;9.970;2022-10-31T06:25:58;10.30;96.60
35463;DHT22;21578;47.892;9.970;2022-10-31T06:30:45;10.30;96.60
35463;DHT22;21578;47.892;9.970;2022-10-31T06:35:32;10.40;96.60
35463;DHT22;21578;47.892;9.970;2022-10-31T06:40:19;10.40;96.60
35463;DHT22;21578;47.892;9.970;2022-10-31T06:45:08;10.60;96.60
35463;DHT22;21578;47.892;9.970;2022-10-31T06:49:55;10.70;96.60
35463;DHT22;21578;47.892;9.970;2022-10-31T06:54:42;10.80;96.60
35463;DHT22;21578;47.892;9.970;2022-10-31T06:59:29;10.80;96.60
35463;DHT22;21578;47.892;9.970;2022-10-31T07:04:17;10.90;96.60
35463;DHT22;21578;47.892;9.970;2022-10-31T07:09:04;11.00;96.60
35463;DHT22;21578;47.892;9.970;2022-10-31T07:13:51;11.20;96.60
35463;DHT22;21578;47.892;9.970;2022-10-31T07:18:38;11.20;96.60
35463;DHT22;21578;47.892;9.970;2022-10-31T07:23:27;11.20;96.60
35463;DHT22;21578;47.892;9.970;2022-10-31T07:28:13;11.30;96.60
35463;DHT22;21578;47.892;9.970;2022-10-31T07:33:01;11.40;96.60
35463;DHT22;21578;47.892;9.970;2022-10-31T07:37:48;11.50;96.60
35463;DHT22;21578;47.892;9.970;2022-10-31T07:42:37;11.70;96.60
35463;DHT22;21578;47.892;9.970;2022-10-31T07:47:24;11.90;96.60
35463;DHT22;21578;47.892;9.970;2022-10-31T07:52:11;12.10;96.60
35463;DHT22;21578;47.892;9.970;2022-10-31T07:56:58;12.20;96.60
35463;DHT22;21578;47.892;9.970;2022-10-31T08:01:46;12.40;96.60
35463;DHT22;21578;47.892;9.970;2022-10-31T08:06:33;12.60;96.60
35463;DHT22;21578;47.892;9.970;2022-10-31T08:11:20;12.90;96.60
35463;DHT22;21578;47.892;9.970;2022-10-31T08:16:07;13.20;96.60
35463;DHT22;21578;47.892;9.970;2022-10-31T08:20:55;13.40;96.60
35463;DHT22;21578;47.892;9.970;2022-10-31T08:25:42;13.70;96.60
35463;DHT22;21578;47.892;9.970;2022-10-31T08:30:34;14.00;96.60
35463;DHT22;21578;47.892;9.970;2022-10-31T08:35:21;14.30;96.60
35463;DHT22;21578;47.892;9.970;2022-10-31T08:40:11;14.50;96.60
35463;DHT22;21578;47.892;9.970;2022-10-31T08:44:58;14.70;96.60
35463;DHT22;21578;47.892;9.970;2022-10-31T08:49:45;14.90;94.70
35463;DHT22;21578;47.892;9.970;2022-10-31T08:54:32;15.20;92.20
35463;DHT22;21578;47.892;9.970;2022-10-31T08:59:20;15.40;89.40
35463;DHT22;21578;47.892;9.970;2022-10-31T09:04:07;15.60;85.90
35463;DHT22;21578;47.892;9.970;2022-10-31T09:08:54;15.70;83.70
35463;DHT22;21578;47.892;9.970;2022-10-31T09:13:41;15.80;83.70
35463;DHT22;21578;47.892;9.970;2022-10-31T09:18:29;15.90;84.00
35463;DHT22;21578;47.892;9.970;2022-10-31T09:23:19;16.10;84.40
35463;DHT22;21578;47.892;9.970;2022-10-31T09:28:08;16.30;81.80
35463;DHT22;21578;47.892;9.970;2022-10-31T09:32:55;16.50;79.20
35463;DHT22;21578;47.892;9.970;2022-10-31T09:37:44;16.70;80.40
35463;DHT22;21578;47.892;9.970;2022-10-31T09:42:47;16.90;79.60
35463;DHT22;21578;47.892;9.970;2022-10-31T09:47:42;17.00;79.80
35463;DHT22;21578;47.892;9.970;2022-10-31T09:52:34;17.10;79.40
35463;DHT22;21578;47.892;9.970;2022-10-31T09:57:27;17.20;78.00
35463;DHT22;21578;47.892;9.970;2022-10-31T10:02:17;17.30;78.80
35463;DHT22;21578;47.892;9.970;2022-10-31T10:07:13;17.40;79.10
35463;DHT22;21578;47.892;9.970;2022-10-31T10:12:09;17.60;79.60
35463;DHT22;21578;47.892;9.970;2022-10-31T10:17:17;17.70;81.00
35463;DHT22;21578;47.892;9.970;2022-10-31T10:22:11;17.70;82.20
35463;DHT22;21578;47.892;9.970;2022-10-31T10:27:06;17.80;82.60
35463;DHT22;21578;47.892;9.970;2022-10-31T10:32:01;17.90;82.80
35463;DHT22;21578;47.892;9.970;2022-10-31T10:36:56;17.90;84.70
35463;DHT22;21578;47.892;9.970;2022-10-31T10:41:48;17.90;84.00
35463;DHT22;21578;47.892;9.970;2022-10-31T10:46:53;18.00;83.60
35463;DHT22;21578;47.892;9.970;2022-10-31T10:52:06;18.10;83.70
35463;DHT22;21578;47.892;9.970;2022-10-31T10:57:02;18.30;84.40
35463;DHT22;21578;47.892;9.970;2022-10-31T11:01:51;18.40;83.10
35463;DHT22;21578;47.892;9.970;2022-10-31T11:06:38;18.40;82.50
35463;DHT22;21578;47.892;9.970;2022-10-31T11:11:28;18.60;82.80
35463;DHT22;21578;47.892;9.970;2022-10-31T11:16:28;18.70;80.20
35463;DHT22;21578;47.892;9.970;2022-10-31T11:21:21;18.80;86.80
35463;DHT22;21578;47.892;9.970;2022-10-31T11:26:19;18.90;83.90
35463;DHT22;21578;47.892;9.970;2022-10-31T11:31:12;19.10;83.60
35463;DHT22;21578;47.892;9.970;2022-10-31T11:36:01;19.20;82.30
35463;DHT22;21578;47.892;9.970;2022-10-31T11:40:53;19.40;80.00
35463;DHT22;21578;47.892;9.970;2022-10-31T11:45:41;19.50;84.10
35463;DHT22;21578;47.892;9.970;2022-10-31T11:50:33;19.40;79.30
35463;DHT22;21578;47.892;9.970;2022-10-31T11:55:31;19.30;79.40
35463;DHT22;21578;47.892;9.970;2022-10-31T12:00:22;19.20;78.50
35463;DHT22;21578;47.892;9.970;2022-10-31T12:05:17;19.40;79.20
35463;DHT22;21578;47.892;9.970;2022-10-31T12:10:12;19.80;77.50
35463;DHT22;21578;47.892;9.970;2022-10-31T12:15:12;20.10;76.20
35463;DHT22;21578;47.892;9.970;2022-10-31T12:20:10;20.20;75.90
35463;DHT22;21578;47.892;9.970;2022-10-31T12:25:12;20.20;73.80
35463;DHT22;21578;47.892;9.970;2022-10-31T12:30:17;20.00;75.10
35463;DHT22;21578;47.892;9.970;2022-10-31T12:35:28;19.80;76.80
35463;DHT22;21578;47.892;9.970;2022-10-31T12:40:38;19.60;77.10
35463;DHT22;21578;47.892;9.970;2022-10-31T12:45:43;19.60;76.80
35463;DHT22;21578;47.892;9.970;2022-10-31T12:50:42;19.50;78.30
35463;DHT22;21578;47.892;9.970;2022-10-31T12:55:41;19.40;80.90
35463;DHT22;21578;47.892;9.970;2022-10-31T13:00:32;19.30;80.60
35463;DHT22;21578;47.892;9.970;2022-10-31T13:05:26;19.20;81.10
35463;DHT22;21578;47.892;9.970;2022-10-31T13:10:19;19.20;81.60
35463;DHT22;21578;47.892;9.970;2022-10-31T13:15:16;19.20;79.50
35463;DHT22;21578;47.892;9.970;2022-10-31T13:20:13;19.20;79.10
35463;DHT22;21578;47.892;9.970;2022-10-31T13:25:09;19.20;79.50
35463;DHT22;21578;47.892;9.970;2022-10-31T13:30:01;19.20;80.10
35463;DHT22;21578;47.892;9.970;2022-10-31T13:34:53;19.20;81.10
35463;DHT22;21578;47.892;9.970;2022-10-31T13:39:52;19.20;81.40
35463;DHT22;21578;47.892;9.970;2022-10-31T13:44:43;19.10;82.50
35463;DHT22;21578;47.892;9.970;2022-10-31T13:49:38;19.10;83.10
35463;DHT22;21578;47.892;9.970;2022-10-31T13:54:34;19.40;83.10
35463;DHT22;21578;47.892;9.970;2022-10-31T13:59:22;19.60;83.10
35463;DHT22;21578;47.892;9.970;2022-10-31T14:04:15;19.60;82.80
35463;DHT22;21578;47.892;9.970;2022-10-31T14:09:03;19.50;82.00
35463;DHT22;21578;47.892;9.970;2022-10-31T14:13:52;19.50;84.00
35463;DHT22;21578;47.892;9.970;2022-10-31T14:18:41;19.70;83.10
35463;DHT22;21578;47.892;9.970;2022-10-31T14:23:35;19.80;83.20
35463;DHT22;21578;47.892;9.970;2022-10-31T14:28:32;19.70;82.30
35463;DHT22;21578;47.892;9.970;2022-10-31T14:33:22;19.80;83.10
35463;DHT22;21578;47.892;9.970;2022-10-31T14:38:34;19.80;82.90
35463;DHT22;21578;47.892;9.970;2022-10-31T14:43:33;19.80;82.80
35463;DHT22;21578;47.892;9.970;2022-10-31T14:48:43;19.60;81.50
35463;DHT22;21578;47.892;9.970;2022-10-31T14:53:36;19.50;79.30
35463;DHT22;21578;47.892;9.970;2022-10-31T14:58:35;19.50;77.40
35463;DHT22;21578;47.892;9.970;2022-10-31T15:03:28;19.40;79.90
35463;DHT22;21578;47.892;9.970;2022-10-31T15:08:33;19.20;83.70
35463;DHT22;21578;47.892;9.970;2022-10-31T15:13:21;19.30;86.80
35463;DHT22;21578;47.892;9.970;2022-10-31T15:18:16;19.20;86.50
35463;DHT22;21578;47.892;9.970;2022-10-31T15:23:03;18.90;87.20
35463;DHT22;21578;47.892;9.970;2022-10-31T15:27:52;18.70;87.40
35463;DHT22;21578;47.892;9.970;2022-10-31T15:32:44;18.60;87.80
35463;DHT22;21578;47.892;9.970;2022-10-31T15:37:31;18.40;89.20
35463;DHT22;21578;47.892;9.970;2022-10-31T15:42:21;18.10;90.20
35463;DHT22;21578;47.892;9.970;2022-10-31T15:47:17;18.00;91.30
35463;DHT22;21578;47.892;9.970;2022-10-31T15:52:10;17.90;92.30
35463;DHT22;21578;47.892;9.970;2022-10-31T15:56:58;17.60;94.00
35463;DHT22;21578;47.892;9.970;2022-10-31T16:01:58;17.30;95.20
35463;DHT22;21578;47.892;9.970;2022-10-31T16:06:58;17.00;96.20
35463;DHT22;21578;47.892;9.970;2022-10-31T16:11:46;16.80;95.60
35463;DHT22;21578;47.892;9.970;2022-10-31T16:16:41;16.60;96.50
35463;DHT22;21578;47.892;9.970;2022-10-31T16:21:31;16.40;96.60
35463;DHT22;21578;47.892;9.970;2022-10-31T16:26:20;16.30;96.60
35463;DHT22;21578;47.892;9.970;2022-10-31T16:31:13;16.20;96.60
35463;DHT22;21578;47.892;9.970;2022-10-31T16:36:00;16.00;96.60
35463;DHT22;21578;47.892;9.970;2022-10-31T16:40:48;15.80;96.60
35463;DHT22;21578;47.892;9.970;2022-10-31T16:45:37;15.60;96.60
35463;DHT22;21578;47.892;9.970;2022-10-31T16:50:28;15.50;96.60
35463;DHT22;21578;47.892;9.970;2022-10-31T16:55:16;15.30;96.60
35463;DHT22;21578;47.892;9.970;2022-10-31T17:00:05;15.10;96.60
35463;DHT22;21578;47.892;9.970;2022-10-31T17:04:54;15.00;96.60
35463;DHT22;21578;47.892;9.970;2022-10-31T17:09:41;14.90;96.60
35463;DHT22;21578;47.892;9.970;2022-10-31T17:14:28;14.80;96.60
35463;DHT22;21578;47.892;9.970;2022-10-31T17:19:15;14.70;96.60
35463;DHT22;21578;47.892;9.970;2022-10-31T17:24:03;14.70;96.60
35463;DHT22;21578;47.892;9.970;2022-10-31T17:28:50;14.40;96.60
35463;DHT22;21578;47.892;9.970;2022-10-31T17:33:37;14.20;96.60
35463;DHT22;21578;47.892;9.970;2022-10-31T17:38:24;14.00;96.60
35463;DHT22;21578;47.892;9.970;2022-10-31T17:43:12;14.00;96.60
35463;DHT22;21578;47.892;9.970;2022-10-31T17:47:59;13.90;96.60
35463;DHT22;21578;47.892;9.970;2022-10-31T17:52:47;13.90;96.60
35463;DHT22;21578;47.892;9.970;2022-10-31T17:57:34;13.80;96.60
35463;DHT22;21578;47.892;9.970;2022-10-31T18:02:22;13.70;96.60
35463;DHT22;21578;47.892;9.970;2022-10-31T18:07:09;13.60;96.60
35463;DHT22;21578;47.892;9.970;2022-10-31T18:11:56;13.50;96.60
35463;DHT22;21578;47.892;9.970;2022-10-31T18:16:43;13.40;96.60
35463;DHT22;21578;47.892;9.970;2022-10-31T18:21:32;13.20;96.60
35463;DHT22;21578;47.892;9.970;2022-10-31T18:26:19;13.20;96.60
35463;DHT22;21578;47.892;9.970;2022-10-31T18:31:05;13.10;96.60
35463;DHT22;21578;47.892;9.970;2022-10-31T18:35:52;13.10;96.60
35463;DHT22;21578;47.892;9.970;2022-10-31T18:40:41;13.10;96.60
35463;DHT22;21578;47.892;9.970;2022-10-31T18:45:28;13.00;96.60
35463;DHT22;21578;47.892;9.970;2022-10-31T18:50:15;13.00;96.60
35463;DHT22;21578;47.892;9.970;2022-10-31T18:55:02;13.00;96.60
35463;DHT22;21578;47.892;9.970;2022-10-31T18:59:50;12.90;96.60
35463;DHT22;21578;47.892;9.970;2022-10-31T19:04:37;13.00;96.60
35463;DHT22;21578;47.892;9.970;2022-10-31T19:09:24;12.90;96.60
35463;DHT22;21578;47.892;9.970;2022-10-31T19:14:12;12.80;96.60
35463;DHT22;21578;47.892;9.970;2022-10-31T19:19:00;12.80;96.60
35463;DHT22;21578;47.892;9.970;2022-10-31T19:23:48;12.80;96.60
35463;DHT22;21578;47.892;9.970;2022-10-31T19:28:36;12.70;96.60
35463;DHT22;21578;47.892;9.970;2022-10-31T19:33:24;12.70;96.60
35463;DHT22;21578;47.892;9.970;2022-10-31T19:38:15;12.70;96.60
35463;DHT22;21578;47.892;9.970;2022-10-31T19:43:01;12.60;96.60
35463;DHT22;21578;47.892;9.970;2022-10-31T19:47:48;12.60;96.60
35463;DHT22;21578;47.892;9.970;2022-10-31T19:52:35;12.70;96.60
35463;DHT22;21578;47.892;9.970;2022-10-31T19:57:24;12.60;96.60
35463;DHT22;21578;47.892;9.970;2022-10-31T20:02:12;12.60;96.60
35463;DHT22;21578;47.892;9.970;2022-10-31T20:07:05;12.60;96.60
35463;DHT22;21578;47.892;9.970;2022-10-31T20:11:52;12.70;96.60
35463;DHT22;21578;47.892;9.970;2022-10-31T20:16:41;12.90;96.60
35463;DHT22;21578;47.892;9.970;2022-10-31T20:21:29;13.00;96.60
35463;DHT22;21578;47.892;9.970;2022-10-31T20:26:18;13.10;96.00
35463;DHT22;21578;47.892;9.970;2022-10-31T20:31:08;13.20;94.10
35463;DHT22;21578;47.892;9.970;2022-10-31T20:35:56;13.40;91.50
35463;DHT22;21578;47.892;9.970;2022-10-31T20:40:43;13.50;90.40
35463;DHT22;21578;47.892;9.970;2022-10-31T20:45:31;13.70;89.00
35463;DHT22;21578;47.892;9.970;2022-10-31T20:50:18;13.80;88.00
35463;DHT22;21578;47.892;9.970;2022-10-31T20:55:07;14.10;86.40
35463;DHT22;21578;47.892;9.970;2022-10-31T20:59:55;14.10;86.60
35463;DHT22;21578;47.892;9.970;2022-10-31T21:04:42;14.20;85.50
35463;DHT22;21578;47.892;9.970;2022-10-31T21:09:30;14.20;85.80
35463;DHT22;21578;47.892;9.970;2022-10-31T21:14:18;14.20;85.40
35463;DHT22;21578;47.892;9.970;2022-10-31T21:19:05;14.20;85.30
35463;DHT22;21578;47.892;9.970;2022-10-31T21:23:53;14.20;85.60
35463;DHT22;21578;47.892;9.970;2022-10-31T21:28:40;14.20;86.00
35463;DHT22;21578;47.892;9.970;2022-10-31T21:33:29;14.00;87.10
35463;DHT22;21578;47.892;9.970;2022-10-31T21:38:16;14.00;88.40
35463;DHT22;21578;47.892;9.970;2022-10-31T21:43:03;13.70;91.10
35463;DHT22;21578;47.892;9.970;2022-10-31T21:47:50;13.40;91.60
35463;DHT22;21578;47.892;9.970;2022-10-31T21:52:38;13.40;92.50
35463;DHT22;21578;47.892;9.970;2022-10-31T21:57:25;13.00;94.40
35463;DHT22;21578;47.892;9.970;2022-10-31T22:02:12;12.70;96.50
35463;DHT22;21578;47.892;9.970;2022-10-31T22:06:59;12.40;96.60
35463;DHT22;21578;47.892;9.970;2022-10-31T22:11:47;12.30;96.60
35463;DHT22;21578;47.892;9.970;2022-10-31T22:16:35;12.40;96.60
35463;DHT22;21578;47.892;9.970;2022-10-31T22:21:23;12.30;96.60
35463;DHT22;21578;47.892;9.970;2022-10-31T22:26:12;12.30;96.60
35463;DHT22;21578;47.892;9.970;2022-10-31T22:31:04;12.50;96.60
35463;DHT22;21578;47.892;9.970;2022-10-31T22:35:51;12.40;96.60
35463;DHT22;21578;47.892;9.970;2022-10-31T22:40:38;12.30;96.60
35463;DHT22;21578;47.892;9.970;2022-10-31T22:45:25;12.40;96.60
35463;DHT22;21578;47.892;9.970;2022-10-31T22:50:13;12.40;96.60
35463;DHT22;21578;47.892;9.970;2022-10-31T22:55:00;12.40;96.60
35463;DHT22;21578;47.892;9.970;2022-10-31T22:59:47;12.30;96.60
35463;DHT22;21578;47.892;9.970;2022-10-31T23:04:35;12.50;96.60
35463;DHT22;21578;47.892;9.970;2022-10-31T23:09:23;12.30;96.60
35463;DHT22;21578;47.892;9.970;2022-10-31T23:14:13;11.90;96.60
35463;DHT22;21578;47.892;9.970;2022-10-31T23:19:03;11.90;96.60
35463;DHT22;21578;47.892;9.970;2022-10-31T23:23:52;11.70;96.60
35463;DHT22;21578;47.892;9.970;2022-10-31T23:28:40;11.70;96.60
35463;DHT22;21578;47.892;9.970;2022-10-31T23:33:27;11.60;96.60
35463;DHT22;21578;47.892;9.970;2022-10-31T23:38:14;11.50;96.60
35463;DHT22;21578;47.892;9.970;2022-10-31T23:43:01;11.40;96.60
35463;DHT22;21578;47.892;9.970;2022-10-31T23:47:49;11.40;96.60
35463;DHT22;21578;47.892;9.970;2022-10-31T23:52:36;11.30;96.60
35463;DHT22;21578;47.892;9.970;2022-10-31T23:57:23;11.10;96.60
